Time;durP1;ratioP1;P1;durP2;ratioP2;P2;SDS_P1;SDS_P2;PMS_P1;PMS_P2;Temp;Humidity;BMP_temperature;BMP_pressure;BME280_temperature;BME280_humidity;BME280_pressure;Samples;Min_cycle;Max_cycle;Signal;HPM_P1;HPM_P2
2022/03/28 00:01:21;;;;;;;1999.90;999.90;;;15.70;44.10;;;;;;5010426;28;20039;-85
2022/03/28 00:03:47;;;;;;;1999.90;999.90;;;15.70;44.30;;;;;;5014138;28;20463;-84
2022/03/28 00:06:13;;;;;;;1999.90;999.90;;;15.60;44.30;;;;;;5011123;28;20037;-84
2022/03/28 00:08:39;;;;;;;1999.90;999.90;;;15.50;44.50;;;;;;5005957;28;20038;-85
2022/03/28 00:11:08;;;;;;;1999.90;999.90;;;15.50;44.50;;;;;;5012939;28;20426;-85
2022/03/28 00:13:35;;;;;;;1999.90;999.90;;;15.50;44.60;;;;;;5012108;28;20030;-84
2022/03/28 00:16:01;;;;;;;1999.90;999.90;;;15.40;44.70;;;;;;5012781;28;20509;-85
2022/03/28 00:18:27;;;;;;;1999.90;999.90;;;15.30;44.90;;;;;;5011087;28;20034;-84
2022/03/28 00:20:54;;;;;;;1999.90;999.90;;;15.30;44.90;;;;;;5011551;28;20530;-84
2022/03/28 00:23:20;;;;;;;1999.90;999.90;;;15.30;45.00;;;;;;5012446;28;20033;-84
2022/03/28 00:25:46;;;;;;;1999.90;999.90;;;15.30;45.10;;;;;;5012665;28;20386;-84
2022/03/28 00:28:13;;;;;;;1999.90;999.90;;;15.20;45.10;;;;;;5012437;28;20375;-85
2022/03/28 00:30:39;;;;;;;1999.90;999.90;;;15.20;45.20;;;;;;5012394;28;20030;-85
2022/03/28 00:33:06;;;;;;;1999.90;999.90;;;15.10;45.20;;;;;;4994002;28;20042;-85
2022/03/28 00:35:32;;;;;;;1999.90;999.90;;;15.10;45.30;;;;;;5010996;28;20041;-84
2022/03/28 00:37:58;;;;;;;1999.90;999.90;;;15.00;45.30;;;;;;5011534;28;20022;-84
2022/03/28 00:40:27;;;;;;;1999.90;999.90;;;15.00;45.40;;;;;;5012574;28;20052;-84
2022/03/28 00:42:54;;;;;;;1999.90;999.90;;;15.00;45.60;;;;;;5013378;28;20037;-85
2022/03/28 00:45:20;;;;;;;1999.90;999.90;;;14.90;45.60;;;;;;5009891;28;20084;-84
2022/03/28 00:47:47;;;;;;;1999.90;999.90;;;14.90;45.60;;;;;;5011046;28;20022;-84
2022/03/28 00:50:13;;;;;;;1999.90;999.90;;;14.90;45.60;;;;;;5011519;28;20041;-85
2022/03/28 00:52:39;;;;;;;1999.90;999.90;;;14.90;45.70;;;;;;5011164;28;20028;-84
2022/03/28 00:55:07;;;;;;;1999.90;999.90;;;14.80;45.80;;;;;;5013511;28;20052;-84
2022/03/28 00:57:33;;;;;;;1999.90;999.90;;;14.80;45.90;;;;;;5013499;28;20033;-84
2022/03/28 01:00:00;;;;;;;1999.90;999.90;;;14.80;45.90;;;;;;5010325;28;20038;-85
2022/03/28 01:02:26;;;;;;;1999.90;999.90;;;14.70;46.00;;;;;;5010709;28;20034;-85
2022/03/28 01:04:52;;;;;;;1999.90;999.90;;;14.70;46.00;;;;;;5011837;28;20347;-84
2022/03/28 01:07:18;;;;;;;1999.90;999.90;;;14.70;46.10;;;;;;5011036;28;20022;-84
2022/03/28 01:09:44;;;;;;;1999.90;999.90;;;14.60;46.10;;;;;;4993570;28;20090;-85
2022/03/28 01:12:10;;;;;;;1999.90;999.90;;;14.60;46.20;;;;;;5007571;28;20057;-84
2022/03/28 01:14:37;;;;;;;1999.90;999.90;;;14.60;46.30;;;;;;4998844;28;20045;-85
2022/03/28 01:19:54;;;;;;;1999.90;999.90;;;14.50;46.40;;;;;;5009326;28;20041;-84
2022/03/28 01:22:20;;;;;;;1999.90;999.90;;;14.50;46.40;;;;;;5011521;28;20514;-84
2022/03/28 01:24:46;;;;;;;1999.90;999.90;;;14.40;46.40;;;;;;5012270;28;20030;-84
2022/03/28 01:27:14;;;;;;;1999.90;999.90;;;14.40;46.50;;;;;;5010517;28;20029;-84
2022/03/28 01:29:44;;;;;;;1999.90;999.90;;;14.40;46.60;;;;;;5010712;28;20030;-84
2022/03/28 01:32:11;;;;;;;1999.90;999.90;;;14.40;46.70;;;;;;5009849;28;20042;-84
2022/03/28 01:34:37;;;;;;;1999.90;999.90;;;14.30;46.70;;;;;;5010073;28;20113;-84
2022/03/28 01:37:04;;;;;;;1999.90;999.90;;;14.30;46.80;;;;;;5013585;28;20033;-85
2022/03/28 01:39:31;;;;;;;1999.90;999.90;;;14.20;46.90;;;;;;5009842;28;20037;-85
2022/03/28 01:41:58;;;;;;;1999.90;999.90;;;14.20;46.90;;;;;;5010730;28;20479;-84
2022/03/28 01:44:25;;;;;;;1999.90;999.90;;;14.20;46.90;;;;;;5011437;28;20030;-84
2022/03/28 01:46:51;;;;;;;1999.90;999.90;;;14.20;47.00;;;;;;5009501;28;20045;-84
2022/03/28 01:49:18;;;;;;;1999.90;999.90;;;14.10;47.00;;;;;;4993438;28;20038;-84
2022/03/28 01:51:45;;;;;;;1999.90;999.90;;;14.10;47.10;;;;;;5011885;28;20053;-84
2022/03/28 01:54:11;;;;;;;1999.90;999.90;;;14.10;47.10;;;;;;5010241;28;20186;-84
2022/03/28 01:56:37;;;;;;;1999.90;999.90;;;14.10;47.20;;;;;;5007838;28;20478;-84
2022/03/28 01:59:04;;;;;;;1999.90;999.90;;;14.00;47.20;;;;;;5010366;28;20030;-84
2022/03/28 02:01:30;;;;;;;1999.90;999.90;;;14.10;47.30;;;;;;5004175;28;20059;-84
2022/03/28 02:03:57;;;;;;;1999.90;999.90;;;14.00;47.40;;;;;;5005572;28;20049;-84
2022/03/28 02:06:23;;;;;;;1999.90;999.90;;;13.90;47.40;;;;;;5004298;28;20037;-84
2022/03/28 02:08:50;;;;;;;1999.90;999.90;;;13.90;47.50;;;;;;5002964;28;20049;-85
2022/03/28 02:11:16;;;;;;;1999.90;999.90;;;13.90;48.30;;;;;;5002406;28;20047;-85
2022/03/28 02:13:42;;;;;;;1999.90;999.90;;;13.80;47.70;;;;;;5006813;28;20037;-85
2022/03/28 02:16:08;;;;;;;1999.90;999.90;;;13.70;47.90;;;;;;5005559;28;20414;-85
2022/03/28 02:18:35;;;;;;;1999.90;999.90;;;13.60;47.90;;;;;;5004624;28;20038;-84
2022/03/28 02:21:01;;;;;;;1999.90;999.90;;;13.60;47.90;;;;;;5001635;28;20034;-84
2022/03/28 02:23:28;;;;;;;1999.90;999.90;;;13.60;48.00;;;;;;5001941;28;20026;-85
2022/03/28 02:25:54;;;;;;;1999.90;999.90;;;13.60;48.00;;;;;;4992621;28;20042;-85
2022/03/28 02:28:20;;;;;;;1999.90;999.90;;;13.60;48.00;;;;;;5005928;28;20030;-85
2022/03/28 02:30:46;;;;;;;1999.90;999.90;;;13.60;48.10;;;;;;4995339;28;20037;-85
2022/03/28 02:33:12;;;;;;;1999.90;999.90;;;13.50;48.10;;;;;;5003077;28;20029;-84
2022/03/28 02:35:40;;;;;;;1999.90;999.90;;;13.50;48.10;;;;;;5001359;28;20053;-85
2022/03/28 02:38:07;;;;;;;1999.90;999.90;;;13.50;48.10;;;;;;5009877;28;20026;-84
2022/03/28 02:40:33;;;;;;;1999.90;999.90;;;13.50;48.20;;;;;;5009116;28;20399;-84
2022/03/28 02:43:00;;;;;;;1999.90;999.90;;;13.50;48.20;;;;;;4994799;28;20037;-84
2022/03/28 02:45:26;;;;;;;1999.90;999.90;;;13.50;48.20;;;;;;5008914;28;20037;-84
2022/03/28 02:47:52;;;;;;;1999.90;999.90;;;13.40;48.20;;;;;;5008613;28;20034;-84
2022/03/28 02:50:19;;;;;;;1999.90;999.90;;;13.40;48.20;;;;;;5008435;28;20045;-84
2022/03/28 02:52:45;;;;;;;1999.90;999.90;;;13.40;48.30;;;;;;5009413;28;20030;-84
2022/03/28 02:55:11;;;;;;;1999.90;999.90;;;13.40;48.30;;;;;;5009209;28;20057;-82
2022/03/28 02:57:37;;;;;;;1999.90;999.90;;;13.40;48.30;;;;;;4993208;28;20400;-77
2022/03/28 03:00:07;;;;;;;1999.90;999.90;;;13.40;48.40;;;;;;5009208;28;20030;-76
2022/03/28 03:02:34;;;;;;;1999.90;999.90;;;13.40;48.40;;;;;;5008915;28;20041;-76
2022/03/28 03:05:01;;;;;;;1999.90;999.90;;;13.30;48.40;;;;;;4994392;28;20048;-77
2022/03/28 03:07:27;;;;;;;1999.90;999.90;;;13.30;48.50;;;;;;5004449;28;20467;-84
2022/03/28 03:09:53;;;;;;;1999.90;999.90;;;13.20;48.60;;;;;;5010756;28;20037;-85
2022/03/28 03:12:19;;;;;;;1999.90;999.90;;;13.20;48.60;;;;;;5008440;28;20050;-86
2022/03/28 03:14:45;;;;;;;1999.90;999.90;;;13.20;48.70;;;;;;5005219;28;20379;-85
2022/03/28 03:17:11;;;;;;;1999.90;999.90;;;13.20;48.70;;;;;;5008261;28;20042;-86
2022/03/28 03:19:40;;;;;;;1999.90;999.90;;;13.20;48.70;;;;;;5008450;28;20073;-86
2022/03/28 03:22:07;;;;;;;1999.90;999.90;;;13.20;48.80;;;;;;5009850;28;20049;-84
2022/03/28 03:24:34;;;;;;;1999.90;999.90;;;13.10;48.80;;;;;;5010569;28;20038;-84
2022/03/28 03:27:00;;;;;;;1999.90;999.90;;;13.10;48.80;;;;;;5001368;28;20057;-86
2022/03/28 03:29:27;;;;;;;1999.90;999.90;;;13.10;48.90;;;;;;5004898;28;20030;-85
2022/03/28 03:31:53;;;;;;;1999.90;999.90;;;13.00;48.90;;;;;;5012318;28;20038;-85
2022/03/28 03:34:19;;;;;;;1999.90;999.90;;;12.90;49.00;;;;;;5014050;28;20026;-85
2022/03/28 03:36:45;;;;;;;1999.90;999.90;;;12.90;49.10;;;;;;5015047;28;20498;-85
2022/03/28 03:39:12;;;;;;;1999.90;999.90;;;12.90;49.10;;;;;;5013510;28;20042;-85
2022/03/28 03:41:38;;;;;;;1999.90;999.90;;;12.80;49.20;;;;;;5009251;28;20026;-85
2022/03/28 03:44:06;;;;;;;1999.90;999.90;;;12.80;49.80;;;;;;5011907;28;20029;-85
2022/03/28 03:46:32;;;;;;;1999.90;999.90;;;12.80;49.30;;;;;;4996765;28;20410;-85
2022/03/28 03:48:58;;;;;;;1999.90;999.90;;;12.80;49.30;;;;;;4995026;28;20034;-85
2022/03/28 03:51:25;;;;;;;1999.90;999.90;;;12.80;49.90;;;;;;5013432;28;20034;-84
2022/03/28 03:53:51;;;;;;;1999.90;999.90;;;12.70;49.40;;;;;;5010774;28;20489;-84
2022/03/28 03:56:17;;;;;;;1999.90;999.90;;;12.70;49.40;;;;;;5011976;28;20048;-84
2022/03/28 03:58:43;;;;;;;1999.90;999.90;;;12.70;49.40;;;;;;4996394;28;20030;-85
2022/03/28 04:01:09;;;;;;;1999.90;999.90;;;12.70;49.50;;;;;;5012973;28;20042;-85
2022/03/28 04:03:36;;;;;;;1999.90;999.90;;;12.60;49.60;;;;;;4977815;28;20034;-85
2022/03/28 04:06:02;;;;;;;1999.90;999.90;;;12.60;49.60;;;;;;5012270;28;20053;-85
2022/03/28 04:08:28;;;;;;;1999.90;999.90;;;12.60;49.60;;;;;;4996300;28;20034;-86
2022/03/28 04:10:55;;;;;;;1999.90;999.90;;;12.60;49.70;;;;;;4994018;28;20041;-86
2022/03/28 04:13:21;;;;;;;1999.90;999.90;;;12.60;49.80;;;;;;5012537;28;20490;-87
2022/03/28 04:15:48;;;;;;;1999.90;999.90;;;12.60;49.80;;;;;;5012014;28;20080;-85
2022/03/28 04:18:14;;;;;;;1999.90;999.90;;;12.50;49.80;;;;;;5012999;28;20378;-87
2022/03/28 04:20:40;;;;;;;1999.90;999.90;;;12.50;49.90;;;;;;5013416;28;20034;-85
2022/03/28 04:23:06;;;;;;;1999.90;999.90;;;12.50;49.90;;;;;;5011884;28;20038;-86
2022/03/28 04:25:33;;;;;;;1999.90;999.90;;;12.40;49.90;;;;;;5010791;28;20192;-85
2022/03/28 04:27:59;;;;;;;1999.90;999.90;;;12.40;50.00;;;;;;5014683;28;20030;-86
2022/03/28 04:30:25;;;;;;;1999.90;999.90;;;12.40;50.00;;;;;;5010654;28;20042;-85
2022/03/28 04:32:51;;;;;;;1999.90;999.90;;;12.40;50.10;;;;;;5011488;28;20467;-86
2022/03/28 04:35:19;;;;;;;1999.90;999.90;;;12.40;50.20;;;;;;5011539;28;20030;-86
2022/03/28 04:37:45;;;;;;;1999.90;999.90;;;12.40;50.20;;;;;;5010993;28;20038;-85
2022/03/28 04:40:13;;;;;;;1999.90;999.90;;;12.30;50.30;;;;;;5006104;28;20417;-87
2022/03/28 04:42:39;;;;;;;1999.90;999.90;;;12.30;50.30;;;;;;5007181;28;20038;-85
2022/03/28 04:45:06;;;;;;;1999.90;999.90;;;12.20;50.30;;;;;;5012463;28;20037;-85
2022/03/28 04:47:33;;;;;;;1999.90;999.90;;;12.20;50.30;;;;;;4994924;28;20041;-84
2022/03/28 04:49:59;;;;;;;1999.90;999.90;;;12.20;50.30;;;;;;4996221;28;20398;-85
2022/03/28 04:52:25;;;;;;;1999.90;999.90;;;12.20;50.40;;;;;;5011815;28;20033;-86
2022/03/28 04:54:51;;;;;;;1999.90;999.90;;;12.20;50.40;;;;;;5011908;28;20046;-86
2022/03/28 04:57:18;;;;;;;1999.90;999.90;;;12.20;50.50;;;;;;5010937;28;20044;-86
2022/03/28 04:59:44;;;;;;;1999.90;999.90;;;12.20;50.50;;;;;;5011325;28;20018;-86
2022/03/28 05:02:10;;;;;;;1999.90;999.90;;;12.20;50.50;;;;;;5010931;28;20038;-86
2022/03/28 05:04:36;;;;;;;1999.90;999.90;;;12.20;50.50;;;;;;5011236;28;20022;-86
2022/03/28 05:07:02;;;;;;;1999.90;999.90;;;12.20;50.50;;;;;;5012224;28;20038;-86
2022/03/28 05:09:28;;;;;;;1999.90;999.90;;;12.10;50.60;;;;;;5012779;28;20334;-86
2022/03/28 05:11:55;;;;;;;1999.90;999.90;;;12.10;50.60;;;;;;5010622;28;20038;-86
2022/03/28 05:14:22;;;;;;;1999.90;999.90;;;12.10;50.60;;;;;;5011847;28;20038;-86
2022/03/28 05:16:48;;;;;;;1999.90;999.90;;;12.00;50.60;;;;;;5010662;28;20034;-86
2022/03/28 05:19:15;;;;;;;1999.90;999.90;;;12.00;50.70;;;;;;5010899;28;20029;-86
2022/03/28 05:21:41;;;;;;;1999.90;999.90;;;12.00;50.80;;;;;;5012623;28;20053;-86
2022/03/28 05:24:07;;;;;;;1999.90;999.90;;;12.00;50.80;;;;;;5010663;28;20399;-86
2022/03/28 05:26:33;;;;;;;1999.90;999.90;;;11.90;50.80;;;;;;5010800;28;20478;-86
2022/03/28 05:29:00;;;;;;;1999.90;999.90;;;11.90;50.90;;;;;;5010692;28;20485;-85
2022/03/28 05:31:26;;;;;;;1999.90;999.90;;;11.80;50.90;;;;;;5010106;28;20034;-86
2022/03/28 05:33:53;;;;;;;1999.90;999.90;;;11.80;51.60;;;;;;5012465;28;20038;-86
2022/03/28 05:36:19;;;;;;;1999.90;999.90;;;11.80;51.10;;;;;;5010497;28;20506;-86
2022/03/28 05:38:45;;;;;;;1999.90;999.90;;;11.70;51.00;;;;;;5010481;28;20026;-87
2022/03/28 05:41:11;;;;;;;1999.90;999.90;;;11.70;51.10;;;;;;5010510;28;20029;-87
2022/03/28 05:43:37;;;;;;;1999.90;999.90;;;11.70;51.10;;;;;;5008290;28;20049;-87
2022/03/28 05:46:04;;;;;;;1999.90;999.90;;;11.60;51.10;;;;;;5020969;28;20045;-86
2022/03/28 05:48:30;;;;;;;1999.90;999.90;;;11.60;51.10;;;;;;4998397;28;20056;-86
2022/03/28 05:50:56;;;;;;;1999.90;999.90;;;11.60;51.20;;;;;;4987338;28;20038;-86
2022/03/28 05:53:22;;;;;;;1999.90;999.90;;;11.50;51.20;;;;;;4998760;28;20469;-84
2022/03/28 05:55:48;;;;;;;1999.90;999.90;;;11.60;51.30;;;;;;5000000;28;20030;-84
2022/03/28 05:58:15;;;;;;;1999.90;999.90;;;11.50;51.30;;;;;;4996429;28;20049;-85
2022/03/28 06:00:41;;;;;;;1999.90;999.90;;;11.50;51.30;;;;;;4980267;28;20035;-84
2022/03/28 06:03:08;;;;;;;1999.90;999.90;;;11.50;51.30;;;;;;5006015;28;20455;-85
2022/03/28 06:05:36;;;;;;;1999.90;999.90;;;11.50;51.40;;;;;;4996782;28;20038;-84
2022/03/28 06:08:03;;;;;;;1999.90;999.90;;;11.50;51.30;;;;;;5011265;28;20036;-85
2022/03/28 06:10:29;;;;;;;1999.90;999.90;;;11.50;51.30;;;;;;5009948;28;20376;-84
2022/03/28 06:12:55;;;;;;;1999.90;999.90;;;11.60;51.40;;;;;;5011747;28;20434;-84
2022/03/28 06:15:21;;;;;;;1999.90;999.90;;;11.50;51.30;;;;;;5009492;28;20038;-84
2022/03/28 06:17:47;;;;;;;1999.90;999.90;;;11.60;51.30;;;;;;5001395;28;20068;-85
2022/03/28 06:20:14;;;;;;;1999.90;999.90;;;11.60;51.30;;;;;;5007639;28;20458;-84
2022/03/28 06:22:40;;;;;;;1999.90;999.90;;;11.70;51.30;;;;;;5009216;28;20037;-83
2022/03/28 06:25:08;;;;;;;1999.90;999.90;;;11.70;51.30;;;;;;5010034;28;20036;-84
2022/03/28 06:27:40;;;;;;;1999.90;999.90;;;11.70;51.30;;;;;;5011132;28;20053;-84
2022/03/28 06:30:09;;;;;;;1999.90;999.90;;;11.80;51.30;;;;;;5005838;28;20068;-82
2022/03/28 06:32:35;;;;;;;1999.90;999.90;;;11.80;51.20;;;;;;5002063;28;20102;-82
2022/03/28 06:35:01;;;;;;;1999.90;999.90;;;11.80;51.30;;;;;;5002960;28;20039;-82
2022/03/28 06:37:27;;;;;;;1999.90;999.90;;;11.80;51.40;;;;;;5007658;28;20041;-82
2022/03/28 06:39:53;;;;;;;1999.90;999.90;;;11.80;51.40;;;;;;5004207;28;20033;-82
2022/03/28 06:42:19;;;;;;;1999.90;999.90;;;11.80;51.30;;;;;;5004132;28;20026;-83
2022/03/28 06:44:45;;;;;;;1999.90;999.90;;;11.90;51.20;;;;;;5002365;28;20034;-81
2022/03/28 06:47:11;;;;;;;1999.90;999.90;;;12.00;51.20;;;;;;5004962;28;20025;-82
2022/03/28 06:49:38;;;;;;;1999.90;999.90;;;12.10;51.00;;;;;;5008491;28;20033;-81
2022/03/28 06:52:04;;;;;;;1999.90;999.90;;;12.20;50.90;;;;;;4975950;28;20029;-84
2022/03/28 06:54:30;;;;;;;1999.90;999.90;;;12.30;50.80;;;;;;4998492;28;20372;-81
2022/03/28 06:56:56;;;;;;;1999.90;999.90;;;12.50;50.80;;;;;;5000537;28;20042;-83
2022/03/28 06:59:23;;;;;;;1999.90;999.90;;;12.50;50.60;;;;;;4996699;28;20034;-81
2022/03/28 07:01:50;;;;;;;1999.90;999.90;;;12.60;50.60;;;;;;5004161;28;20514;-82
2022/03/28 07:04:16;;;;;;;1999.90;999.90;;;12.70;50.60;;;;;;5007839;28;20517;-83
2022/03/28 07:49:35;;;;;;;1999.90;999.90;;;12.70;50.50;;;;;;5066539;28;20392;-87
2022/03/28 07:52:02;;;;;;;1999.90;999.90;;;12.80;51.30;;;;;;5067965;28;20025;-81
2022/03/28 07:54:29;;;;;;;1999.90;999.90;;;13.00;51.60;;;;;;5051672;28;20029;-84
2022/03/28 07:56:55;;;;;;;1999.90;999.90;;;13.30;51.70;;;;;;5047165;28;20365;-87
2022/03/28 07:59:23;;;;;;;1999.90;999.90;;;13.50;51.70;;;;;;5053212;28;20489;-87
2022/03/28 08:01:51;;;;;;;1999.90;999.90;;;13.80;51.60;;;;;;5046422;28;20390;-90
2022/03/28 08:04:20;;;;;;;1999.90;999.90;;;14.00;51.50;;;;;;5032920;28;20026;-86
2022/03/28 08:06:46;;;;;;;1999.90;999.90;;;14.10;51.40;;;;;;5031810;28;20018;-83
2022/03/28 08:09:12;;;;;;;1999.90;999.90;;;14.20;51.40;;;;;;5031944;28;20040;-83
2022/03/28 08:11:38;;;;;;;1999.90;999.90;;;14.40;51.30;;;;;;5039991;28;20026;-83
2022/03/28 08:14:04;;;;;;;1999.90;999.90;;;14.50;51.20;;;;;;5037353;28;20029;-84
2022/03/28 08:16:31;;;;;;;1999.90;999.90;;;14.60;51.10;;;;;;5037704;28;20405;-86
2022/03/28 08:18:57;;;;;;;1999.90;999.90;;;14.80;51.00;;;;;;5015763;28;20030;-87
2022/03/28 08:21:23;;;;;;;1999.90;999.90;;;14.90;50.80;;;;;;5023317;28;20029;-87
2022/03/28 08:23:49;;;;;;;1999.90;999.90;;;14.90;50.90;;;;;;5035851;28;20030;-89
2022/03/28 08:26:15;;;;;;;1999.90;999.90;;;14.90;50.90;;;;;;5027603;28;20021;-88
2022/03/28 08:28:42;;;;;;;1999.90;999.90;;;14.90;51.10;;;;;;5029508;28;20493;-88
2022/03/28 08:31:09;;;;;;;1999.90;999.90;;;14.90;51.20;;;;;;5042893;28;20056;-86
2022/03/28 08:33:35;;;;;;;1999.90;999.90;;;14.90;51.10;;;;;;5042990;28;20406;-87
2022/03/28 08:36:01;;;;;;;1999.90;999.90;;;15.00;51.00;;;;;;5026966;28;20036;-85
2022/03/28 08:38:27;;;;;;;1999.90;999.90;;;15.20;50.90;;;;;;5031044;28;20050;-85
2022/03/28 08:40:54;;;;;;;1999.90;999.90;;;15.30;50.70;;;;;;5021146;28;20037;-87
2022/03/28 08:43:21;;;;;;;1999.90;999.90;;;15.50;50.60;;;;;;5028597;28;20045;-88
2022/03/28 08:45:49;;;;;;;1999.90;999.90;;;15.70;50.30;;;;;;5041286;28;20034;-86
2022/03/28 08:48:15;;;;;;;1999.90;999.90;;;15.80;50.10;;;;;;4996541;28;20043;-86
2022/03/28 08:50:43;;;;;;;1999.90;999.90;;;15.80;50.10;;;;;;5012930;28;20030;-86
2022/03/28 08:53:09;;;;;;;1999.90;999.90;;;15.80;50.20;;;;;;5005705;28;20033;-85
2022/03/28 08:55:36;;;;;;;1999.90;999.90;;;15.90;50.10;;;;;;5003450;28;20419;-86
2022/03/28 08:58:02;;;;;;;1999.90;999.90;;;15.90;50.20;;;;;;5010491;28;20022;-86
2022/03/28 09:00:28;;;;;;;1999.90;999.90;;;15.90;50.30;;;;;;4987528;28;20033;-87
2022/03/28 09:02:58;;;;;;;1999.90;999.90;;;16.00;50.30;;;;;;4997325;28;20048;-85
2022/03/28 09:05:31;;;;;;;1999.90;999.90;;;16.10;50.30;;;;;;5010154;28;20367;-87
2022/03/28 09:07:58;;;;;;;1999.90;999.90;;;16.20;50.30;;;;;;5026981;28;20037;-86
2022/03/28 09:10:25;;;;;;;1999.90;999.90;;;16.40;50.10;;;;;;5019428;28;20041;-86
2022/03/28 09:13:07;;;;;;;1999.90;999.90;;;16.60;50.00;;;;;;5008209;28;20371;-88
2022/03/28 09:15:45;;;;;;;1999.90;999.90;;;16.80;49.70;;;;;;5032872;28;20034;-88
2022/03/28 09:18:22;;;;;;;1999.90;999.90;;;17.00;49.40;;;;;;5017010;28;20040;-87
2022/03/28 09:20:50;;;;;;;1999.90;999.90;;;17.20;49.30;;;;;;4995510;28;20034;-88
2022/03/28 09:23:29;;;;;;;1999.90;999.90;;;17.20;49.20;;;;;;5016584;28;20042;-88
2022/03/28 09:25:56;;;;;;;1999.90;999.90;;;17.40;49.10;;;;;;5021220;28;20043;-88
2022/03/28 09:28:37;;;;;;;1999.90;999.90;;;17.60;48.90;;;;;;4981429;28;20056;-88
2022/03/28 09:31:27;;;;;;;1999.90;999.90;;;17.80;48.60;;;;;;5034998;28;20026;-88
2022/03/28 09:34:15;;;;;;;1999.90;999.90;;;18.00;48.40;;;;;;5022989;28;20033;-88
2022/03/28 09:36:54;;;;;;;1999.90;999.90;;;18.10;48.30;;;;;;5013939;28;20022;-86
2022/03/28 09:39:28;;;;;;;1999.90;999.90;;;18.20;48.30;;;;;;5024168;28;20022;-89
2022/03/28 09:42:02;;;;;;;1999.90;999.90;;;18.40;48.00;;;;;;5011923;28;20422;-86
2022/03/28 09:44:57;;;;;;;1999.90;999.90;;;18.50;47.80;;;;;;4992686;28;20037;-87
2022/03/28 09:47:24;;;;;;;1999.90;999.90;;;18.70;47.80;;;;;;4990863;28;20035;-88
2022/03/28 09:49:54;;;;;;;1999.90;999.90;;;18.80;47.60;;;;;;4994847;28;20049;-86
2022/03/28 09:52:25;;;;;;;1999.90;999.90;;;19.00;47.40;;;;;;4992414;28;20029;-88
2022/03/28 09:55:01;;;;;;;1999.90;999.90;;;19.10;47.20;;;;;;5008888;28;20045;-88
2022/03/28 09:57:32;;;;;;;1999.90;999.90;;;19.40;47.20;;;;;;4992985;28;20034;-85
2022/03/28 10:00:17;;;;;;;1999.90;999.90;;;19.60;46.80;;;;;;4976459;28;20391;-87
2022/03/28 10:02:44;;;;;;;1999.90;999.90;;;19.90;46.50;;;;;;5009483;28;20041;-87
2022/03/28 10:05:10;;;;;;;1999.90;999.90;;;20.10;46.20;;;;;;5038461;28;20026;-86
2022/03/28 10:07:36;;;;;;;1999.90;999.90;;;20.30;45.90;;;;;;4995056;28;20030;-87
2022/03/28 10:10:03;;;;;;;1999.90;999.90;;;20.40;45.40;;;;;;5030406;28;20045;-84
2022/03/28 10:12:29;;;;;;;1999.90;999.90;;;20.40;45.30;;;;;;5015197;28;20029;-82
2022/03/28 10:15:01;;;;;;;1999.90;999.90;;;20.50;45.20;;;;;;5021483;28;20379;-81
2022/03/28 10:17:28;;;;;;;1999.90;999.90;;;20.70;44.90;;;;;;4988094;28;20034;-80
2022/03/28 10:19:55;;;;;;;1999.90;999.90;;;20.80;44.60;;;;;;4988859;28;20479;-80
2022/03/28 10:22:30;;;;;;;1999.90;999.90;;;20.80;44.40;;;;;;4990288;28;20117;-81
2022/03/28 10:24:58;;;;;;;1999.90;999.90;;;20.90;44.00;;;;;;4975055;28;20042;-81
2022/03/28 10:27:25;;;;;;;1999.90;999.90;;;21.00;43.80;;;;;;4991381;28;20030;-82
2022/03/28 10:29:53;;;;;;;1999.90;999.90;;;21.10;43.70;;;;;;4990171;28;20034;-80
2022/03/28 10:32:20;;;;;;;1999.90;999.90;;;21.10;43.60;;;;;;5013800;28;20025;-80
2022/03/28 10:34:59;;;;;;;1999.90;999.90;;;21.30;43.50;;;;;;5021880;28;20041;-81
2022/03/28 10:37:43;;;;;;;1999.90;999.90;;;21.40;43.20;;;;;;5011893;28;20387;-81
2022/03/28 10:40:26;;;;;;;1999.90;999.90;;;21.50;42.80;;;;;;5040350;28;20040;-82
2022/03/28 10:43:14;;;;;;;1999.90;999.90;;;21.60;42.80;;;;;;5047276;28;20041;-88
2022/03/28 10:46:15;;;;;;;1999.90;999.90;;;21.60;42.50;;;;;;5017307;28;20062;-88
2022/03/28 10:48:46;;;;;;;1999.90;999.90;;;21.70;42.40;;;;;;4987510;28;20050;-92
2022/03/28 10:51:13;;;;;;;1999.90;999.90;;;21.80;42.10;;;;;;4977352;28;20038;-87
2022/03/28 10:53:47;;;;;;;1999.90;999.90;;;21.80;41.90;;;;;;4978487;28;20414;-87
2022/03/28 10:56:20;;;;;;;1999.90;999.90;;;22.00;42.20;;;;;;4972905;28;20034;-84
2022/03/28 10:58:52;;;;;;;1999.90;999.90;;;22.10;41.40;;;;;;5000408;28;20039;-84
2022/03/28 11:01:23;;;;;;;1999.90;999.90;;;22.20;41.30;;;;;;4974652;28;20046;-84
2022/03/28 11:03:53;;;;;;;;;;;22.20;40.90;;;;;;4975159;28;20047;-83
2022/03/28 11:06:21;;;;;;;1999.90;999.90;;;22.20;40.90;;;;;;4988918;28;19910;-83
2022/03/28 11:09:00;;;;;;;1999.90;999.90;;;22.30;41.00;;;;;;4970607;28;20423;-83
2022/03/28 11:11:27;;;;;;;1999.90;999.90;;;22.30;41.00;;;;;;4968053;28;20038;-83
2022/03/28 11:13:59;;;;;;;1999.90;999.90;;;22.40;40.90;;;;;;4973619;28;20030;-83
2022/03/28 11:16:54;;;;;;;1999.90;999.90;;;22.40;40.70;;;;;;4994726;28;20046;-83
2022/03/28 11:19:29;;;;;;;1999.90;999.90;;;22.30;40.70;;;;;;5001880;28;20034;-83
2022/03/28 11:22:15;;;;;;;1999.90;999.90;;;22.20;40.70;;;;;;4997243;28;20049;-84
2022/03/28 11:24:54;;;;;;;1999.90;999.90;;;22.20;40.70;;;;;;5035358;28;20041;-84
2022/03/28 11:27:22;;;;;;;1999.90;999.90;;;22.20;40.40;;;;;;5015462;28;20501;-83
2022/03/28 11:29:48;;;;;;;1999.90;999.90;;;22.20;40.40;;;;;;5012826;28;20042;-84
2022/03/28 11:32:19;;;;;;;1999.90;999.90;;;22.20;40.40;;;;;;5014733;28;20052;-83
2022/03/28 11:34:54;;;;;;;1999.90;999.90;;;22.30;40.30;;;;;;5010797;28;20041;-85
2022/03/28 11:37:26;;;;;;;1999.90;999.90;;;22.40;40.10;;;;;;5011477;28;20034;-85
2022/03/28 11:40:00;;;;;;;1999.90;999.90;;;22.40;39.80;;;;;;5048356;28;20045;-84
2022/03/28 11:42:28;;;;;;;1999.90;999.90;;;22.40;39.80;;;;;;5015565;28;20030;-85
2022/03/28 11:44:55;;;;;;;1999.90;999.90;;;22.50;39.70;;;;;;4996326;28;20033;-82
2022/03/28 11:47:21;;;;;;;1999.90;999.90;;;22.40;39.40;;;;;;5020794;28;20026;-82
2022/03/28 11:49:58;;;;;;;1999.90;999.90;;;22.40;39.40;;;;;;4996711;28;20052;-82
2022/03/28 11:52:26;;;;;;;1999.90;999.90;;;22.40;39.30;;;;;;5024792;28;20030;-83
2022/03/28 11:54:53;;;;;;;1999.90;999.90;;;22.50;39.40;;;;;;5041249;28;20501;-81
2022/03/28 12:00:15;;;;;;;1999.90;999.90;;;22.60;39.10;;;;;;5017744;28;20064;-80
2022/03/28 12:02:58;;;;;;;1999.90;999.90;;;22.60;38.90;;;;;;5015487;28;20025;-80
2022/03/28 12:05:36;;;;;;;1999.90;999.90;;;22.60;38.80;;;;;;4996253;28;20490;-80
2022/03/28 12:08:13;;;;;;;1999.90;999.90;;;22.60;38.50;;;;;;4998401;28;20509;-82
2022/03/28 12:10:43;;;;;;;1999.90;999.90;;;22.50;38.10;;;;;;4987905;28;20046;-88
2022/03/28 12:13:10;;;;;;;1999.90;999.90;;;22.40;38.10;;;;;;5012967;28;20026;-82
2022/03/28 12:15:40;;;;;;;1999.90;999.90;;;22.30;38.10;;;;;;5046188;28;20049;-82
2022/03/28 12:18:08;;;;;;;1999.90;999.90;;;22.30;38.10;;;;;;4991062;28;20037;-82
2022/03/28 12:20:38;;;;;;;1999.90;999.90;;;22.30;37.90;;;;;;4988748;28;20273;-83
2022/03/28 12:23:06;;;;;;;1999.90;999.90;;;22.40;37.50;;;;;;4987853;28;20498;-83
2022/03/28 12:25:39;;;;;;;1999.90;999.90;;;22.40;37.30;;;;;;4976099;28;20034;-84
2022/03/28 12:28:11;;;;;;;1999.90;999.90;;;22.40;37.30;;;;;;5003130;28;20030;-83
2022/03/28 12:30:39;;;;;;;1999.90;999.90;;;22.50;37.10;;;;;;4993998;28;20105;-86
2022/03/28 12:33:14;;;;;;;1999.90;999.90;;;22.50;37.00;;;;;;5001780;28;20029;-85
2022/03/28 12:35:43;;;;;;;1999.90;999.90;;;22.60;36.90;;;;;;4999417;28;20026;-83
2022/03/28 12:38:13;;;;;;;1999.90;999.90;;;22.70;36.40;;;;;;4997693;28;20128;-85
2022/03/28 12:40:40;;;;;;;1999.90;999.90;;;22.70;36.50;;;;;;5009562;28;20030;-81
2022/03/28 12:43:06;;;;;;;1999.90;999.90;;;22.70;36.40;;;;;;4998768;28;20019;-85
2022/03/28 12:45:32;;;;;;;1999.90;999.90;;;22.70;36.30;;;;;;5008418;28;20038;-83
2022/03/28 12:48:03;;;;;;;1999.90;999.90;;;22.70;36.40;;;;;;5011960;28;20057;-81
2022/03/28 12:50:30;;;;;;;1999.90;999.90;;;22.70;36.40;;;;;;5012049;28;20041;-82
2022/03/28 12:53:13;;;;;;;1999.90;999.90;;;22.70;36.30;;;;;;5011591;28;20383;-83